createdAt,value
2019-03-15T00:01:00.835Z,75.86
2019-03-15T00:03:50.714Z,76.45
2019-03-15T00:06:40.608Z,76.28
2019-03-15T00:09:30.433Z,75.90
2019-03-15T00:12:20.300Z,76.00
2019-03-15T00:15:10.314Z,75.95
2019-03-15T00:18:00.187Z,76.08
2019-03-15T00:20:50.019Z,75.94
2019-03-15T00:23:39.875Z,75.97
2019-03-15T00:26:29.715Z,75.68
2019-03-15T00:29:19.634Z,76.14
2019-03-15T00:32:09.484Z,76.34
2019-03-15T00:35:00.317Z,76.21
2019-03-15T00:37:50.110Z,76.05
2019-03-15T00:40:39.951Z,76.37
2019-03-15T00:43:29.761Z,76.17
2019-03-15T00:46:19.691Z,76.33
2019-03-15T00:49:09.541Z,76.52
2019-03-15T00:51:39.989Z,76.35
2019-03-15T00:54:29.985Z,76.52
2019-03-15T00:57:19.844Z,76.72
2019-03-15T01:00:11.443Z,76.49
2019-03-15T01:02:44.394Z,76.45
2019-03-15T01:05:34.437Z,76.11
2019-03-15T01:08:24.277Z,76.37
2019-03-15T01:11:14.078Z,76.10
2019-03-15T01:14:04.074Z,75.78
2019-03-15T01:16:54.028Z,75.71
2019-03-15T01:19:43.866Z,75.96
2019-03-15T01:22:33.797Z,75.67
2019-03-15T01:25:23.602Z,75.74
2019-03-15T01:28:13.442Z,75.50
2019-03-15T01:31:03.278Z,75.51
2019-03-15T01:33:53.099Z,75.30
2019-03-15T01:36:42.967Z,75.51
2019-03-15T01:39:32.839Z,75.32
2019-03-15T01:42:22.694Z,75.37
2019-03-15T01:45:12.635Z,75.32
2019-03-15T01:48:02.497Z,75.68
2019-03-15T01:50:52.358Z,75.89
2019-03-15T01:53:42.223Z,76.17
2019-03-15T01:56:32.068Z,75.96
2019-03-15T01:59:02.505Z,75.43
2019-03-15T02:01:52.388Z,75.09
2019-03-15T02:04:42.314Z,75.19
2019-03-15T02:07:32.190Z,75.25
2019-03-15T02:10:22.602Z,74.69
2019-03-15T02:13:04.963Z,74.79
2019-03-15T02:15:54.866Z,75.11
2019-03-15T02:18:25.406Z,75.30
2019-03-15T02:21:15.253Z,75.14
2019-03-15T02:24:05.189Z,74.82
2019-03-15T02:26:55.032Z,74.08
2019-03-15T02:29:44.882Z,74.24
2019-03-15T02:32:34.755Z,74.62
2019-03-15T02:35:24.606Z,74.94
2019-03-15T02:38:14.466Z,74.88
2019-03-15T02:41:05.123Z,74.97
2019-03-15T02:43:47.372Z,75.28
2019-03-15T02:46:37.249Z,75.37
2019-03-15T02:49:27.102Z,75.24
2019-03-15T02:52:16.944Z,74.95
2019-03-15T02:55:06.906Z,74.46
2019-03-15T02:57:37.482Z,73.91
2019-03-15T03:00:27.327Z,72.84
2019-03-15T03:03:17.166Z,72.31
2019-03-15T03:06:07.029Z,71.85
2019-03-15T03:08:37.762Z,72.08
2019-03-15T03:11:27.596Z,72.62
2019-03-15T03:14:17.457Z,72.68
2019-03-15T03:17:07.314Z,73.05
2019-03-15T03:19:57.232Z,73.00
2019-03-15T03:22:47.056Z,72.69
2019-03-15T03:25:37.234Z,72.43
2019-03-15T03:28:19.913Z,72.82
2019-03-15T03:31:09.774Z,72.88
2019-03-15T03:33:59.657Z,72.87
2019-03-15T03:36:49.451Z,72.98
2019-03-15T03:39:39.289Z,73.48
2019-03-15T03:42:29.135Z,73.57
2019-03-15T03:45:19.021Z,73.97
2019-03-15T03:47:49.491Z,74.40
2019-03-15T03:50:39.352Z,74.52
2019-03-15T03:53:29.229Z,74.55
2019-03-15T03:56:19.128Z,74.62
2019-03-15T03:58:49.576Z,74.06
2019-03-15T04:01:39.461Z,73.10
2019-03-15T04:04:29.338Z,73.14
2019-03-15T04:07:19.321Z,73.45
2019-03-15T04:10:09.356Z,73.48
2019-03-15T04:12:39.944Z,73.99
2019-03-15T04:15:29.845Z,74.30
2019-03-15T04:18:19.815Z,74.71
2019-03-15T04:21:09.745Z,74.56
2019-03-15T04:23:59.603Z,74.56
2019-03-15T04:26:49.565Z,74.39
2019-03-15T04:29:39.457Z,74.91
2019-03-15T04:32:29.370Z,74.94
2019-03-15T04:35:19.205Z,74.25
2019-03-15T04:37:49.809Z,74.15
2019-03-15T04:40:39.605Z,74.12
2019-03-15T04:43:29.441Z,73.93
2019-03-15T04:46:19.280Z,73.38
2019-03-15T04:48:51.366Z,73.37
2019-03-15T04:51:41.182Z,72.67
2019-03-15T04:54:31.036Z,72.94
2019-03-15T04:57:20.888Z,72.75
2019-03-15T05:00:12.363Z,72.62
2019-03-15T05:02:43.065Z,72.70
2019-03-15T05:05:32.919Z,72.74
2019-03-15T05:08:22.742Z,72.91
2019-03-15T05:11:12.593Z,73.30
2019-03-15T05:13:43.039Z,73.84
2019-03-15T05:16:33.031Z,73.62
2019-03-15T05:19:22.825Z,73.18
2019-03-15T05:22:13.606Z,73.06
2019-03-15T05:25:03.611Z,72.78
2019-03-15T05:27:53.435Z,72.48
2019-03-15T05:30:43.277Z,71.94
2019-03-15T05:33:33.141Z,72.19
2019-03-15T05:36:23.010Z,72.00
2019-03-15T05:39:12.892Z,71.57
2019-03-15T05:42:02.740Z,70.93
2019-03-15T05:44:52.690Z,70.18
2019-03-15T05:47:42.525Z,69.75
2019-03-15T05:50:32.405Z,68.21
2019-03-15T05:53:22.313Z,68.64
2019-03-15T05:56:12.244Z,68.86
2019-03-15T05:59:02.094Z,68.50
2019-03-15T06:01:51.958Z,68.17
2019-03-15T06:04:22.412Z,67.89
2019-03-15T06:07:12.264Z,67.76
2019-03-15T06:10:02.138Z,67.66
2019-03-15T06:12:51.994Z,67.57
2019-03-15T06:15:41.828Z,68.18
2019-03-15T06:18:31.647Z,70.73
2019-03-15T06:21:21.509Z,72.11
2019-03-15T06:24:11.442Z,72.22
2019-03-15T06:27:01.263Z,72.33
2019-03-15T06:29:51.117Z,72.04
2019-03-15T06:32:40.971Z,74.21
2019-03-15T06:35:30.844Z,75.40
2019-03-15T06:38:20.681Z,75.89
2019-03-15T06:41:10.570Z,75.82
2019-03-15T06:44:01.010Z,76.11
2019-03-15T06:46:50.815Z,76.22
2019-03-15T06:49:40.694Z,76.48
2019-03-15T06:52:30.540Z,77.69
2019-03-15T06:55:20.378Z,78.50
2019-03-15T06:58:29.296Z,77.73
2019-03-15T07:01:19.173Z,76.28
2019-03-15T07:03:49.706Z,76.62
2019-03-15T07:06:39.531Z,76.00
2019-03-15T07:09:30.918Z,75.87
2019-03-15T07:12:20.940Z,77.11
2019-03-15T07:15:10.996Z,75.80
2019-03-15T07:18:00.812Z,75.16
2019-03-15T07:20:50.679Z,75.07
2019-03-15T07:23:40.593Z,74.59
2019-03-15T07:26:30.546Z,74.74
2019-03-15T07:29:20.425Z,75.27
2019-03-15T07:32:10.720Z,72.92
2019-03-15T07:35:00.634Z,72.42
2019-03-15T07:37:50.582Z,70.96
2019-03-15T07:40:40.542Z,67.54
2019-03-15T07:43:30.395Z,66.74
2019-03-15T07:46:01.260Z,67.21
2019-03-15T07:48:31.802Z,65.76
2019-03-15T07:51:21.636Z,64.81
2019-03-15T07:54:11.614Z,64.19
2019-03-15T07:57:02.379Z,64.25
2019-03-15T07:59:52.237Z,63.78
2019-03-15T08:02:22.849Z,61.87
2019-03-15T08:04:54.959Z,61.57
2019-03-15T08:07:45.885Z,60.89
2019-03-15T08:10:28.512Z,59.62
2019-03-15T08:13:18.364Z,59.62
2019-03-15T08:16:08.255Z,58.38
2019-03-15T08:18:38.987Z,57.71
2019-03-15T08:21:28.866Z,57.69
2019-03-15T08:24:18.751Z,57.99
2019-03-15T08:26:49.402Z,58.25
2019-03-15T08:29:39.254Z,58.50
2019-03-15T08:32:29.190Z,58.66
2019-03-15T08:35:19.090Z,56.77
2019-03-15T08:37:49.740Z,55.61
2019-03-15T08:40:39.557Z,55.45
2019-03-15T08:43:29.415Z,55.56
2019-03-15T08:46:19.224Z,55.33
2019-03-15T08:48:49.759Z,54.47
2019-03-15T08:51:20.470Z,54.31
2019-03-15T08:54:10.369Z,54.63
2019-03-15T08:57:00.214Z,55.26
2019-03-15T08:59:56.973Z,54.37
2019-03-15T09:02:41.666Z,54.20
2019-03-15T09:05:31.540Z,54.22
2019-03-15T09:08:21.374Z,53.69
2019-03-15T09:11:11.243Z,52.49
2019-03-15T09:14:01.058Z,52.64
2019-03-15T09:16:50.950Z,53.81
2019-03-15T09:19:40.758Z,53.97
2019-03-15T09:22:30.680Z,54.55
2019-03-15T09:25:01.338Z,55.25
2019-03-15T09:27:51.243Z,55.23
2019-03-15T09:30:41.189Z,55.02
2019-03-15T09:33:31.061Z,55.92
2019-03-15T09:36:20.937Z,57.49
2019-03-15T09:39:10.823Z,77.99
2019-03-15T09:42:00.713Z,67.50
2019-03-15T09:44:50.572Z,64.04
2019-03-15T09:47:40.513Z,63.71
2019-03-15T09:50:40.011Z,61.41
2019-03-15T09:53:13.335Z,59.50
2019-03-15T09:56:03.261Z,59.79
2019-03-15T09:58:53.187Z,59.24
2019-03-15T10:01:43.055Z,57.90
2019-03-15T10:04:35.887Z,57.54
2019-03-15T10:07:16.073Z,56.10
2019-03-15T10:10:13.503Z,55.24
2019-03-15T10:12:43.736Z,54.76
2019-03-15T10:15:33.666Z,54.71
2019-03-15T10:18:23.608Z,53.54
2019-03-15T10:21:13.474Z,52.36
2019-03-15T10:24:03.339Z,51.75
2019-03-15T10:26:53.218Z,51.26
2019-03-15T10:29:43.187Z,51.49
2019-03-15T10:32:33.065Z,50.89
2019-03-15T10:35:23.123Z,50.94
2019-03-15T10:38:16.411Z,51.58
2019-03-15T10:40:50.713Z,51.07
2019-03-15T10:43:40.605Z,51.56
2019-03-15T10:46:30.492Z,51.25
2019-03-15T10:49:20.377Z,50.01
2019-03-15T10:51:50.948Z,51.11
2019-03-15T10:54:40.763Z,51.57
2019-03-15T10:57:30.632Z,51.70
2019-03-15T11:00:20.501Z,51.39
2019-03-15T11:03:13.002Z,50.79
2019-03-15T11:06:02.135Z,50.07
2019-03-15T11:08:52.007Z,50.28
2019-03-15T11:11:41.848Z,51.10
2019-03-15T11:14:31.745Z,50.15
2019-03-15T11:17:03.815Z,48.96
2019-03-15T11:19:53.718Z,49.06
2019-03-15T11:22:43.659Z,49.58
2019-03-15T11:25:33.503Z,50.62
2019-03-15T11:28:23.332Z,49.91
2019-03-15T11:31:13.426Z,49.82
2019-03-15T11:34:03.292Z,49.91
2019-03-15T11:36:58.371Z,49.33
2019-03-15T11:39:44.832Z,48.51
2019-03-15T11:42:34.757Z,48.22
2019-03-15T11:45:24.598Z,48.15
2019-03-15T11:48:14.584Z,49.32
2019-03-15T11:51:04.433Z,49.72
2019-03-15T11:53:34.912Z,49.75
2019-03-15T11:56:27.235Z,49.82
2019-03-15T11:59:02.877Z,49.20
2019-03-15T12:02:03.581Z,49.06
2019-03-15T12:04:30.510Z,49.44
2019-03-15T12:07:20.427Z,48.65
2019-03-15T12:10:10.444Z,48.91
2019-03-15T12:13:00.341Z,48.48
2019-03-15T12:15:50.249Z,48.13
2019-03-15T12:18:40.135Z,47.73
2019-03-15T12:21:30.000Z,46.98
2019-03-15T12:24:19.878Z,47.29
2019-03-15T12:26:50.379Z,48.37
2019-03-15T12:29:40.259Z,49.61
2019-03-15T12:32:30.175Z,49.82
2019-03-15T12:35:20.012Z,49.56
2019-03-15T12:37:50.862Z,49.43
2019-03-15T12:40:40.724Z,50.34
2019-03-15T12:43:30.615Z,50.58
2019-03-15T12:46:20.717Z,50.33
2019-03-15T12:49:10.613Z,50.44
2019-03-15T12:52:00.494Z,51.33
2019-03-15T12:54:50.367Z,51.58
2019-03-15T12:57:40.278Z,51.60
2019-03-15T13:00:30.138Z,51.73
2019-03-15T13:03:22.289Z,52.60
2019-03-15T13:06:12.161Z,52.40
2019-03-15T13:09:02.066Z,52.89
2019-03-15T13:11:51.980Z,53.78
2019-03-15T13:14:41.886Z,54.92
2019-03-15T13:17:31.808Z,55.98
2019-03-15T13:20:21.496Z,57.30
2019-03-15T13:23:11.355Z,57.89
2019-03-15T13:26:01.232Z,58.31
2019-03-15T13:28:51.140Z,58.52
2019-03-15T13:31:21.602Z,59.81
2019-03-15T13:34:11.557Z,60.76
2019-03-15T13:37:01.453Z,61.12
2019-03-15T13:39:51.374Z,61.03
2019-03-15T13:42:41.333Z,60.36
2019-03-15T13:45:31.217Z,60.44
2019-03-15T13:48:21.114Z,60.24
2019-03-15T13:51:11.007Z,60.58
2019-03-15T13:54:00.914Z,61.36
2019-03-15T13:56:50.911Z,61.70
2019-03-15T13:59:21.482Z,61.18
2019-03-15T14:02:11.324Z,62.00
2019-03-15T14:05:01.180Z,62.73
2019-03-15T14:07:51.044Z,62.89
2019-03-15T14:10:49.177Z,63.40
2019-03-15T14:13:24.035Z,63.77
2019-03-15T14:16:13.931Z,64.02
2019-03-15T14:18:44.526Z,64.37
2019-03-15T14:21:34.378Z,64.33
2019-03-15T14:24:24.271Z,64.40
2019-03-15T14:27:14.146Z,64.63
2019-03-15T14:30:04.001Z,64.87
2019-03-15T14:32:53.850Z,64.80
2019-03-15T14:35:43.756Z,64.56
2019-03-15T14:38:33.630Z,65.67
2019-03-15T14:41:23.848Z,65.40
2019-03-15T14:44:18.195Z,65.39
2019-03-15T14:46:58.120Z,65.53
2019-03-15T14:49:28.775Z,65.56
2019-03-15T14:52:18.619Z,65.67
2019-03-15T14:54:49.164Z,65.90
2019-03-15T14:57:51.148Z,65.92
2019-03-15T15:00:22.219Z,65.33
2019-03-15T15:03:12.099Z,65.48
2019-03-15T15:06:02.060Z,65.89
2019-03-15T15:08:32.814Z,66.14
2019-03-15T15:11:25.618Z,65.50
2019-03-15T15:14:06.271Z,65.62
2019-03-15T15:16:56.122Z,65.29
2019-03-15T15:19:46.009Z,65.66
2019-03-15T15:22:16.841Z,65.78
2019-03-15T15:25:06.851Z,65.75
2019-03-15T15:31:01.861Z,65.72
2019-03-15T15:33:51.726Z,65.63
2019-03-15T15:36:41.683Z,65.59
2019-03-15T15:39:31.542Z,65.44
2019-03-15T15:42:02.123Z,65.02
2019-03-15T15:44:51.965Z,64.78
2019-03-15T15:47:41.910Z,65.34
2019-03-15T15:50:31.829Z,65.25
2019-03-15T15:53:04.018Z,65.48
2019-03-15T15:55:53.880Z,65.72
2019-03-15T15:58:43.768Z,65.91
2019-03-15T16:01:33.672Z,66.71
2019-03-15T16:04:23.535Z,67.05
2019-03-15T16:07:13.407Z,67.40
2019-03-15T16:10:03.303Z,67.45
2019-03-15T16:12:53.170Z,67.83
2019-03-15T16:15:43.267Z,68.45
2019-03-15T16:18:33.139Z,68.58
2019-03-15T16:21:22.995Z,68.81
2019-03-15T16:24:12.888Z,69.34
2019-03-15T16:27:02.839Z,70.06
2019-03-15T16:29:33.323Z,70.48
2019-03-15T16:32:23.229Z,71.13
2019-03-15T16:35:13.211Z,71.83
2019-03-15T16:38:03.147Z,72.24
2019-03-15T16:40:52.983Z,72.30
2019-03-15T16:43:42.842Z,73.18
2019-03-15T16:46:32.757Z,74.19
2019-03-15T16:49:03.209Z,75.61
2019-03-15T16:51:39.544Z,77.03
2019-03-15T16:54:29.449Z,78.23
2019-03-15T16:57:19.283Z,78.97
2019-03-15T17:00:10.109Z,80.02
2019-03-15T17:03:00.067Z,80.88
2019-03-15T17:05:49.911Z,82.39
2019-03-15T17:08:39.755Z,83.56
2019-03-15T17:11:29.650Z,84.39
2019-03-15T17:14:25.357Z,84.88
2019-03-15T17:17:02.658Z,85.27
2019-03-15T17:19:54.265Z,85.42
2019-03-15T17:22:36.164Z,86.12
2019-03-15T17:25:26.050Z,86.34
2019-03-15T17:28:15.913Z,86.65
2019-03-15T17:31:10.117Z,86.88
2019-03-15T17:33:49.555Z,87.03
2019-03-15T17:36:20.480Z,87.78
2019-03-15T17:38:51.105Z,87.91
2019-03-15T17:41:41.035Z,88.24
2019-03-15T17:44:11.552Z,88.73
2019-03-15T17:47:01.397Z,88.98
2019-03-15T17:49:51.795Z,88.84
2019-03-15T17:52:41.656Z,89.51
2019-03-15T17:55:31.551Z,89.52
2019-03-15T17:58:21.429Z,90.33
2019-03-15T18:01:11.272Z,90.65
2019-03-15T18:04:01.197Z,91.37
2019-03-15T18:06:51.164Z,91.86
2019-03-15T18:09:41.043Z,91.73
2019-03-15T18:12:30.931Z,91.61
2019-03-15T18:15:21.738Z,91.75
2019-03-15T18:18:11.677Z,91.91
2019-03-15T18:21:01.571Z,91.86
2019-03-15T18:23:51.722Z,92.13
2019-03-15T18:26:41.650Z,92.36
2019-03-15T18:29:31.621Z,92.45
2019-03-15T18:32:21.468Z,93.08
2019-03-15T18:38:27.372Z,93.41
2019-03-15T18:41:17.629Z,93.61
2019-03-15T18:44:07.579Z,93.46
2019-03-15T18:46:57.490Z,93.37
2019-03-15T18:49:47.491Z,93.66
2019-03-15T18:52:37.407Z,93.57
2019-03-15T18:55:27.353Z,93.46
2019-03-15T18:58:17.407Z,93.66
2019-03-15T19:01:07.403Z,93.83
2019-03-15T19:03:57.307Z,93.38
2019-03-15T19:06:47.333Z,93.33
2019-03-15T19:09:17.959Z,93.80
2019-03-15T19:12:07.855Z,93.70
2019-03-15T19:14:57.792Z,93.17
2019-03-15T19:17:47.625Z,93.12
2019-03-15T19:20:37.679Z,93.73
2019-03-15T19:23:27.677Z,93.29
2019-03-15T19:26:17.608Z,92.89
2019-03-15T19:29:07.500Z,91.90
2019-03-15T19:31:57.400Z,92.13
2019-03-15T19:34:47.241Z,92.03
2019-03-15T19:37:37.202Z,91.46
2019-03-15T19:40:27.098Z,91.97
2019-03-15T19:43:17.058Z,92.31
2019-03-15T19:46:06.946Z,91.80
2019-03-15T19:48:56.864Z,91.94
2019-03-15T19:51:46.683Z,91.72
2019-03-15T19:54:36.673Z,91.33
2019-03-15T19:57:26.563Z,90.64
2019-03-15T20:00:07.127Z,89.96
2019-03-15T20:02:48.772Z,88.98
2019-03-15T20:05:38.710Z,88.34
2019-03-15T20:08:28.585Z,88.53
2019-03-15T20:11:18.478Z,89.36
2019-03-15T20:14:08.388Z,88.28
2019-03-15T20:16:39.255Z,88.00
2019-03-15T20:19:29.212Z,88.43
2019-03-15T20:22:21.193Z,88.41
2019-03-15T20:25:12.079Z,88.46
2019-03-15T20:28:04.165Z,87.91
2019-03-15T20:30:53.541Z,87.35
2019-03-15T20:33:43.500Z,86.53
2019-03-15T20:36:33.353Z,86.66
2019-03-15T20:39:23.293Z,86.80
2019-03-15T20:42:13.175Z,86.75
2019-03-15T20:45:03.154Z,86.59
2019-03-15T20:47:53.104Z,86.49
2019-03-15T20:50:47.084Z,85.64
2019-03-15T20:53:20.741Z,85.67
2019-03-15T20:55:51.356Z,84.82
2019-03-15T20:58:41.317Z,84.83
2019-03-15T21:01:31.265Z,84.39
2019-03-15T21:04:23.673Z,84.33
2019-03-15T21:07:25.748Z,83.72
2019-03-15T21:09:56.400Z,83.73
2019-03-15T21:12:46.318Z,82.99
2019-03-15T21:15:36.203Z,83.07
2019-03-15T21:18:26.147Z,82.66
2019-03-15T21:21:16.015Z,82.03
2019-03-15T21:24:06.022Z,82.12
2019-03-15T21:26:56.001Z,82.13
2019-03-15T21:29:46.007Z,81.85
2019-03-15T21:32:35.947Z,82.05
2019-03-15T21:35:07.108Z,81.99
2019-03-15T21:37:56.997Z,81.07
2019-03-15T21:40:46.919Z,81.13
2019-03-15T21:43:17.473Z,81.02
2019-03-15T21:46:07.407Z,80.72
2019-03-15T21:48:57.255Z,80.47
2019-03-15T21:51:47.304Z,80.23
2019-03-15T21:54:37.161Z,80.26
2019-03-15T21:57:27.038Z,79.92
2019-03-15T22:00:16.980Z,79.90
2019-03-15T22:03:06.845Z,79.96
2019-03-15T22:05:38.929Z,79.92
2019-03-15T22:08:28.812Z,79.43
2019-03-15T22:11:21.378Z,79.48
2019-03-15T22:14:01.966Z,79.15
2019-03-15T22:16:51.929Z,79.12
2019-03-15T22:19:41.942Z,79.26
2019-03-15T22:22:31.873Z,78.71
2019-03-15T22:25:02.760Z,78.34
2019-03-15T22:27:52.632Z,78.54
2019-03-15T22:30:42.504Z,78.55
2019-03-15T22:33:32.350Z,77.89
2019-03-15T22:36:22.287Z,77.53
2019-03-15T22:39:12.145Z,77.38
2019-03-15T22:42:02.141Z,77.42
2019-03-15T22:44:52.109Z,77.00
2019-03-15T22:47:42.031Z,76.73
2019-03-15T22:50:31.870Z,76.98
2019-03-15T22:53:21.821Z,76.59
2019-03-15T22:56:11.782Z,76.46
2019-03-15T22:59:01.740Z,76.25
2019-03-15T23:01:51.621Z,76.45
2019-03-15T23:04:41.550Z,76.53
2019-03-15T23:07:12.045Z,75.79
2019-03-15T23:10:01.910Z,75.56
2019-03-15T23:15:34.616Z,75.23
2019-03-15T23:18:24.525Z,75.07
2019-03-15T23:21:14.431Z,75.16
2019-03-15T23:24:04.299Z,74.85
2019-03-15T23:26:54.186Z,74.92
2019-03-15T23:29:44.095Z,74.58
2019-03-15T23:32:33.958Z,74.83
2019-03-15T23:35:23.848Z,74.74
2019-03-15T23:38:13.741Z,74.71
2019-03-15T23:41:03.644Z,74.19
2019-03-15T23:43:53.658Z,74.51
2019-03-15T23:46:43.594Z,74.31
2019-03-15T23:49:14.145Z,74.29
2019-03-15T23:52:04.026Z,74.37
2019-03-15T23:54:53.916Z,74.40
2019-03-15T23:57:43.846Z,74.25
